CYYR

Goose Bay Airport

ICAO Code CYYR
IATA Code YYR
Name Goose Bay Airport
Location Goose Bay, Newfoundland-and-Labrador, CA
Elevation 160 Feet / 48.8 Meters
Latitude 53.31919861
Longitude -60.42580032
METAR CYYR 210800Z 28006KT 15SM OVC012 08/06 A2970 RMK SF8 SLP059
Extra information Display Charts and CFS
Display NOTAMS
Runway Length Width Surface Elevation
08 11046 ft 209 ft ASP 160 ft
16 9580 ft 200 ft ASP 154 ft
26 11046 ft 209 ft ASP 153 ft
34 9580 ft 200 ft ASP 149 ft